sensor_id;sensor_type;location;lat;lon;timestamp;temperature;humidity
45969;DHT22;31676;40.444;-3.668;2022-11-20T00:01:41;23.90;74.80
45969;DHT22;31676;40.444;-3.668;2022-11-20T00:04:08;23.90;74.80
45969;DHT22;31676;40.444;-3.668;2022-11-20T00:06:34;23.90;74.80
45969;DHT22;31676;40.444;-3.668;2022-11-20T00:08:59;23.90;74.80
45969;DHT22;31676;40.444;-3.668;2022-11-20T00:11:27;23.90;74.80
45969;DHT22;31676;40.444;-3.668;2022-11-20T00:13:53;23.90;74.80
45969;DHT22;31676;40.444;-3.668;2022-11-20T00:16:20;23.90;74.80
45969;DHT22;31676;40.444;-3.668;2022-11-20T00:18:46;23.90;74.90
45969;DHT22;31676;40.444;-3.668;2022-11-20T00:21:13;23.90;74.80
45969;DHT22;31676;40.444;-3.668;2022-11-20T00:23:39;23.90;74.80
45969;DHT22;31676;40.444;-3.668;2022-11-20T00:26:06;23.90;75.40
45969;DHT22;31676;40.444;-3.668;2022-11-20T00:28:32;23.90;74.80
45969;DHT22;31676;40.444;-3.668;2022-11-20T00:31:02;23.90;74.80
45969;DHT22;31676;40.444;-3.668;2022-11-20T00:33:28;23.90;74.80
45969;DHT22;31676;40.444;-3.668;2022-11-20T00:35:58;23.90;74.80
45969;DHT22;31676;40.444;-3.668;2022-11-20T00:38:24;23.90;74.80
45969;DHT22;31676;40.444;-3.668;2022-11-20T00:40:54;23.90;74.80
45969;DHT22;31676;40.444;-3.668;2022-11-20T00:43:19;23.90;74.80
45969;DHT22;31676;40.444;-3.668;2022-11-20T00:45:45;23.90;74.80
45969;DHT22;31676;40.444;-3.668;2022-11-20T00:48:11;23.90;74.80
45969;DHT22;31676;40.444;-3.668;2022-11-20T00:50:36;23.90;74.80
45969;DHT22;31676;40.444;-3.668;2022-11-20T00:53:02;23.90;74.80
45969;DHT22;31676;40.444;-3.668;2022-11-20T00:55:28;23.90;74.80
45969;DHT22;31676;40.444;-3.668;2022-11-20T00:57:53;23.80;74.70
45969;DHT22;31676;40.444;-3.668;2022-11-20T01:00:19;23.90;74.80
45969;DHT22;31676;40.444;-3.668;2022-11-20T01:02:47;23.80;74.80
45969;DHT22;31676;40.444;-3.668;2022-11-20T01:05:13;23.80;74.70
45969;DHT22;31676;40.444;-3.668;2022-11-20T01:07:38;23.90;74.80
45969;DHT22;31676;40.444;-3.668;2022-11-20T01:10:04;23.80;74.90
45969;DHT22;31676;40.444;-3.668;2022-11-20T01:12:30;23.80;74.80
45969;DHT22;31676;40.444;-3.668;2022-11-20T01:14:55;23.90;74.80
45969;DHT22;31676;40.444;-3.668;2022-11-20T01:17:21;23.90;74.80
45969;DHT22;31676;40.444;-3.668;2022-11-20T01:19:50;23.80;75.30
45969;DHT22;31676;40.444;-3.668;2022-11-20T01:22:16;23.80;74.80
45969;DHT22;31676;40.444;-3.668;2022-11-20T01:24:42;23.80;74.70
45969;DHT22;31676;40.444;-3.668;2022-11-20T01:27:07;23.80;74.70
45969;DHT22;31676;40.444;-3.668;2022-11-20T01:29:33;23.80;74.70
45969;DHT22;31676;40.444;-3.668;2022-11-20T01:31:58;23.80;74.70
45969;DHT22;31676;40.444;-3.668;2022-11-20T01:34:24;23.80;74.80
45969;DHT22;31676;40.444;-3.668;2022-11-20T01:36:51;23.80;74.80
45969;DHT22;31676;40.444;-3.668;2022-11-20T01:39:18;23.80;74.70
45969;DHT22;31676;40.444;-3.668;2022-11-20T01:41:44;23.80;74.80
45969;DHT22;31676;40.444;-3.668;2022-11-20T01:44:48;23.80;74.80
45969;DHT22;31676;40.444;-3.668;2022-11-20T01:47:16;23.80;74.80
45969;DHT22;31676;40.444;-3.668;2022-11-20T01:49:45;23.80;74.70
45969;DHT22;31676;40.444;-3.668;2022-11-20T01:52:16;23.80;74.70
45969;DHT22;31676;40.444;-3.668;2022-11-20T01:54:51;23.80;74.80
45969;DHT22;31676;40.444;-3.668;2022-11-20T01:57:18;23.80;74.80
45969;DHT22;31676;40.444;-3.668;2022-11-20T01:59:47;23.80;74.80
45969;DHT22;31676;40.444;-3.668;2022-11-20T02:02:14;23.80;74.80
45969;DHT22;31676;40.444;-3.668;2022-11-20T02:04:40;23.80;74.70
45969;DHT22;31676;40.444;-3.668;2022-11-20T02:07:05;23.80;74.70
45969;DHT22;31676;40.444;-3.668;2022-11-20T02:09:31;23.80;74.80
45969;DHT22;31676;40.444;-3.668;2022-11-20T02:11:57;23.80;74.70
45969;DHT22;31676;40.444;-3.668;2022-11-20T02:14:23;23.80;74.70
45969;DHT22;31676;40.444;-3.668;2022-11-20T02:16:49;23.80;74.70
45969;DHT22;31676;40.444;-3.668;2022-11-20T02:19:28;23.80;74.70
45969;DHT22;31676;40.444;-3.668;2022-11-20T02:24:39;23.80;74.80
45969;DHT22;31676;40.444;-3.668;2022-11-20T02:27:09;23.80;74.80
45969;DHT22;31676;40.444;-3.668;2022-11-20T02:29:37;23.80;74.70
45969;DHT22;31676;40.444;-3.668;2022-11-20T02:32:03;23.80;74.70
45969;DHT22;31676;40.444;-3.668;2022-11-20T02:34:29;23.80;74.70
45969;DHT22;31676;40.444;-3.668;2022-11-20T02:36:55;23.80;74.70
45969;DHT22;31676;40.444;-3.668;2022-11-20T02:39:22;23.80;74.70
45969;DHT22;31676;40.444;-3.668;2022-11-20T02:41:48;23.80;74.70
45969;DHT22;31676;40.444;-3.668;2022-11-20T02:44:14;23.80;74.70
45969;DHT22;31676;40.444;-3.668;2022-11-20T02:46:40;23.80;74.80
45969;DHT22;31676;40.444;-3.668;2022-11-20T02:49:05;23.80;74.70
45969;DHT22;31676;40.444;-3.668;2022-11-20T02:51:31;23.80;74.70
45969;DHT22;31676;40.444;-3.668;2022-11-20T02:53:57;23.80;74.70
45969;DHT22;31676;40.444;-3.668;2022-11-20T02:56:22;23.80;74.70
45969;DHT22;31676;40.444;-3.668;2022-11-20T02:58:49;23.80;74.70
45969;DHT22;31676;40.444;-3.668;2022-11-20T03:01:16;23.80;74.70
45969;DHT22;31676;40.444;-3.668;2022-11-20T03:03:42;23.80;74.70
45969;DHT22;31676;40.444;-3.668;2022-11-20T03:06:07;23.80;74.70
45969;DHT22;31676;40.444;-3.668;2022-11-20T03:08:33;23.80;74.70
45969;DHT22;31676;40.444;-3.668;2022-11-20T03:11:05;23.80;74.70
45969;DHT22;31676;40.444;-3.668;2022-11-20T03:13:32;23.80;74.70
45969;DHT22;31676;40.444;-3.668;2022-11-20T03:15:57;23.80;74.70
45969;DHT22;31676;40.444;-3.668;2022-11-20T03:18:23;23.80;74.70
45969;DHT22;31676;40.444;-3.668;2022-11-20T03:20:49;23.80;74.70
45969;DHT22;31676;40.444;-3.668;2022-11-20T03:23:14;23.80;74.70
45969;DHT22;31676;40.444;-3.668;2022-11-20T03:25:40;23.80;74.70
45969;DHT22;31676;40.444;-3.668;2022-11-20T03:28:05;23.80;74.70
45969;DHT22;31676;40.444;-3.668;2022-11-20T03:30:31;23.80;74.70
45969;DHT22;31676;40.444;-3.668;2022-11-20T03:32:57;23.80;74.70
45969;DHT22;31676;40.444;-3.668;2022-11-20T03:35:22;23.80;74.70
45969;DHT22;31676;40.444;-3.668;2022-11-20T03:37:48;23.70;74.60
45969;DHT22;31676;40.444;-3.668;2022-11-20T03:40:14;23.80;74.70
45969;DHT22;31676;40.444;-3.668;2022-11-20T03:42:39;23.80;74.70
45969;DHT22;31676;40.444;-3.668;2022-11-20T03:45:13;23.80;74.70
45969;DHT22;31676;40.444;-3.668;2022-11-20T03:47:39;23.80;74.70
45969;DHT22;31676;40.444;-3.668;2022-11-20T03:50:05;23.80;74.70
45969;DHT22;31676;40.444;-3.668;2022-11-20T03:52:31;23.80;74.70
45969;DHT22;31676;40.444;-3.668;2022-11-20T03:54:57;23.80;74.70
45969;DHT22;31676;40.444;-3.668;2022-11-20T03:57:22;23.70;74.60
45969;DHT22;31676;40.444;-3.668;2022-11-20T03:59:48;23.80;74.60
45969;DHT22;31676;40.444;-3.668;2022-11-20T04:02:13;23.80;74.70
45969;DHT22;31676;40.444;-3.668;2022-11-20T04:04:39;23.70;74.60
45969;DHT22;31676;40.444;-3.668;2022-11-20T04:07:05;23.80;74.70
45969;DHT22;31676;40.444;-3.668;2022-11-20T04:09:30;23.70;74.60
45969;DHT22;31676;40.444;-3.668;2022-11-20T04:11:56;23.80;74.70
45969;DHT22;31676;40.444;-3.668;2022-11-20T04:14:22;23.70;74.70
45969;DHT22;31676;40.444;-3.668;2022-11-20T04:16:47;23.70;74.60
45969;DHT22;31676;40.444;-3.668;2022-11-20T04:19:14;23.80;74.70
45969;DHT22;31676;40.444;-3.668;2022-11-20T04:21:40;23.80;74.70
45969;DHT22;31676;40.444;-3.668;2022-11-20T04:24:06;23.70;74.60
45969;DHT22;31676;40.444;-3.668;2022-11-20T04:26:32;23.70;74.70
45969;DHT22;31676;40.444;-3.668;2022-11-20T04:28:58;23.70;74.60
45969;DHT22;31676;40.444;-3.668;2022-11-20T04:31:25;23.70;74.70
45969;DHT22;31676;40.444;-3.668;2022-11-20T04:33:51;23.70;74.60
45969;DHT22;31676;40.444;-3.668;2022-11-20T04:36:18;23.80;74.70
45969;DHT22;31676;40.444;-3.668;2022-11-20T04:38:44;23.70;74.60
45969;DHT22;31676;40.444;-3.668;2022-11-20T04:41:17;23.70;74.60
45969;DHT22;31676;40.444;-3.668;2022-11-20T04:43:46;23.70;74.70
45969;DHT22;31676;40.444;-3.668;2022-11-20T04:46:12;23.70;74.70
45969;DHT22;31676;40.444;-3.668;2022-11-20T04:48:38;23.70;74.60
45969;DHT22;31676;40.444;-3.668;2022-11-20T04:51:04;23.70;74.60
45969;DHT22;31676;40.444;-3.668;2022-11-20T04:53:29;23.70;74.60
45969;DHT22;31676;40.444;-3.668;2022-11-20T04:56:02;23.70;74.70
45969;DHT22;31676;40.444;-3.668;2022-11-20T04:58:28;23.70;74.70
45969;DHT22;31676;40.444;-3.668;2022-11-20T05:01:00;23.70;74.60
45969;DHT22;31676;40.444;-3.668;2022-11-20T05:03:25;23.70;74.60
45969;DHT22;31676;40.444;-3.668;2022-11-20T05:05:51;23.70;74.60
45969;DHT22;31676;40.444;-3.668;2022-11-20T05:08:17;23.70;74.60
45969;DHT22;31676;40.444;-3.668;2022-11-20T05:10:42;23.70;74.60
45969;DHT22;31676;40.444;-3.668;2022-11-20T05:13:08;23.70;74.60
45969;DHT22;31676;40.444;-3.668;2022-11-20T05:15:33;23.70;74.60
45969;DHT22;31676;40.444;-3.668;2022-11-20T05:17:59;23.70;74.60
45969;DHT22;31676;40.444;-3.668;2022-11-20T05:20:25;23.70;74.60
45969;DHT22;31676;40.444;-3.668;2022-11-20T05:22:50;23.70;74.60
45969;DHT22;31676;40.444;-3.668;2022-11-20T05:25:16;23.70;74.60
45969;DHT22;31676;40.444;-3.668;2022-11-20T05:27:42;23.70;74.60
45969;DHT22;31676;40.444;-3.668;2022-11-20T05:30:08;23.70;74.60
45969;DHT22;31676;40.444;-3.668;2022-11-20T05:32:34;23.70;74.60
45969;DHT22;31676;40.444;-3.668;2022-11-20T05:34:59;23.70;74.60
45969;DHT22;31676;40.444;-3.668;2022-11-20T05:37:25;23.70;74.60
45969;DHT22;31676;40.444;-3.668;2022-11-20T05:39:50;23.70;74.60
45969;DHT22;31676;40.444;-3.668;2022-11-20T05:42:16;23.70;74.60
45969;DHT22;31676;40.444;-3.668;2022-11-20T05:44:58;23.70;74.60
45969;DHT22;31676;40.444;-3.668;2022-11-20T05:47:23;23.70;74.60
45969;DHT22;31676;40.444;-3.668;2022-11-20T05:49:49;23.70;74.60
45969;DHT22;31676;40.444;-3.668;2022-11-20T05:52:15;23.70;74.60
45969;DHT22;31676;40.444;-3.668;2022-11-20T05:54:40;23.70;74.60
45969;DHT22;31676;40.444;-3.668;2022-11-20T05:57:06;23.70;74.60
45969;DHT22;31676;40.444;-3.668;2022-11-20T05:59:32;23.70;74.60
45969;DHT22;31676;40.444;-3.668;2022-11-20T06:01:57;23.70;74.60
45969;DHT22;31676;40.444;-3.668;2022-11-20T06:04:23;23.70;74.60
45969;DHT22;31676;40.444;-3.668;2022-11-20T06:06:49;23.70;74.60
45969;DHT22;31676;40.444;-3.668;2022-11-20T06:09:14;23.70;74.60
45969;DHT22;31676;40.444;-3.668;2022-11-20T06:11:40;23.70;74.60
45969;DHT22;31676;40.444;-3.668;2022-11-20T06:14:06;23.70;74.60
45969;DHT22;31676;40.444;-3.668;2022-11-20T06:16:31;23.70;74.60
45969;DHT22;31676;40.444;-3.668;2022-11-20T06:18:57;23.70;74.70
45969;DHT22;31676;40.444;-3.668;2022-11-20T06:21:22;23.70;74.60
45969;DHT22;31676;40.444;-3.668;2022-11-20T06:23:49;23.70;74.60
45969;DHT22;31676;40.444;-3.668;2022-11-20T06:26:15;23.70;74.70
45969;DHT22;31676;40.444;-3.668;2022-11-20T06:28:41;23.60;74.60
45969;DHT22;31676;40.444;-3.668;2022-11-20T06:31:07;23.70;74.60
45969;DHT22;31676;40.444;-3.668;2022-11-20T06:33:35;23.70;74.70
45969;DHT22;31676;40.444;-3.668;2022-11-20T06:36:01;23.60;74.60
45969;DHT22;31676;40.444;-3.668;2022-11-20T06:38:27;23.70;74.70
45969;DHT22;31676;40.444;-3.668;2022-11-20T06:40:53;23.60;74.60
45969;DHT22;31676;40.444;-3.668;2022-11-20T06:43:19;23.70;74.60
45969;DHT22;31676;40.444;-3.668;2022-11-20T06:45:44;23.70;74.70
45969;DHT22;31676;40.444;-3.668;2022-11-20T06:48:10;23.60;74.60
45969;DHT22;31676;40.444;-3.668;2022-11-20T06:50:36;23.60;74.60
45969;DHT22;31676;40.444;-3.668;2022-11-20T06:53:03;23.70;74.70
45969;DHT22;31676;40.444;-3.668;2022-11-20T06:55:29;23.70;74.70
45969;DHT22;31676;40.444;-3.668;2022-11-20T06:57:55;23.70;74.70
45969;DHT22;31676;40.444;-3.668;2022-11-20T07:00:20;23.60;74.60
45969;DHT22;31676;40.444;-3.668;2022-11-20T07:02:46;23.60;74.60
45969;DHT22;31676;40.444;-3.668;2022-11-20T07:05:12;23.60;74.60
45969;DHT22;31676;40.444;-3.668;2022-11-20T07:07:38;23.60;74.60
45969;DHT22;31676;40.444;-3.668;2022-11-20T07:10:04;23.60;74.60
45969;DHT22;31676;40.444;-3.668;2022-11-20T07:12:29;23.60;74.60
45969;DHT22;31676;40.444;-3.668;2022-11-20T07:14:55;23.60;74.60
45969;DHT22;31676;40.444;-3.668;2022-11-20T07:17:21;23.60;74.60
45969;DHT22;31676;40.444;-3.668;2022-11-20T07:19:47;23.60;74.60
45969;DHT22;31676;40.444;-3.668;2022-11-20T07:22:12;23.60;74.60
45969;DHT22;31676;40.444;-3.668;2022-11-20T07:24:38;23.60;74.60
45969;DHT22;31676;40.444;-3.668;2022-11-20T07:27:04;23.60;74.60
45969;DHT22;31676;40.444;-3.668;2022-11-20T07:29:30;23.60;74.60
45969;DHT22;31676;40.444;-3.668;2022-11-20T07:31:55;23.60;74.60
45969;DHT22;31676;40.444;-3.668;2022-11-20T07:34:22;23.60;74.60
45969;DHT22;31676;40.444;-3.668;2022-11-20T07:36:47;23.60;74.60
45969;DHT22;31676;40.444;-3.668;2022-11-20T07:39:13;23.60;74.60
45969;DHT22;31676;40.444;-3.668;2022-11-20T07:41:39;23.60;74.60
45969;DHT22;31676;40.444;-3.668;2022-11-20T07:44:04;23.60;74.60
45969;DHT22;31676;40.444;-3.668;2022-11-20T07:46:30;23.60;74.60
45969;DHT22;31676;40.444;-3.668;2022-11-20T07:48:56;23.60;74.60
45969;DHT22;31676;40.444;-3.668;2022-11-20T07:51:21;23.60;74.60
45969;DHT22;31676;40.444;-3.668;2022-11-20T07:53:49;23.60;74.60
45969;DHT22;31676;40.444;-3.668;2022-11-20T07:56:15;23.60;74.60
45969;DHT22;31676;40.444;-3.668;2022-11-20T07:58:41;23.60;74.60
45969;DHT22;31676;40.444;-3.668;2022-11-20T08:01:07;23.60;74.60
45969;DHT22;31676;40.444;-3.668;2022-11-20T08:03:33;23.60;74.60
45969;DHT22;31676;40.444;-3.668;2022-11-20T08:05:59;23.60;74.60
45969;DHT22;31676;40.444;-3.668;2022-11-20T08:08:26;23.60;74.60
45969;DHT22;31676;40.444;-3.668;2022-11-20T08:10:52;23.60;74.60
45969;DHT22;31676;40.444;-3.668;2022-11-20T08:13:17;23.60;74.60
45969;DHT22;31676;40.444;-3.668;2022-11-20T08:16:02;23.60;74.60
45969;DHT22;31676;40.444;-3.668;2022-11-20T08:18:27;23.60;74.60
45969;DHT22;31676;40.444;-3.668;2022-11-20T08:20:53;23.60;74.60
45969;DHT22;31676;40.444;-3.668;2022-11-20T08:23:19;23.60;74.60
45969;DHT22;31676;40.444;-3.668;2022-11-20T08:25:48;23.60;74.60
45969;DHT22;31676;40.444;-3.668;2022-11-20T08:28:14;23.60;74.60
45969;DHT22;31676;40.444;-3.668;2022-11-20T08:30:39;23.60;74.60
45969;DHT22;31676;40.444;-3.668;2022-11-20T08:33:06;23.60;74.60
45969;DHT22;31676;40.444;-3.668;2022-11-20T08:35:33;23.60;74.60
45969;DHT22;31676;40.444;-3.668;2022-11-20T08:38:00;23.60;74.60
45969;DHT22;31676;40.444;-3.668;2022-11-20T08:40:26;23.60;74.70
45969;DHT22;31676;40.444;-3.668;2022-11-20T08:42:52;23.60;74.60
45969;DHT22;31676;40.444;-3.668;2022-11-20T08:45:18;23.60;74.60
45969;DHT22;31676;40.444;-3.668;2022-11-20T08:47:44;23.60;74.60
45969;DHT22;31676;40.444;-3.668;2022-11-20T08:50:10;23.60;74.60
45969;DHT22;31676;40.444;-3.668;2022-11-20T08:52:36;23.60;74.70
45969;DHT22;31676;40.444;-3.668;2022-11-20T08:55:02;23.60;74.60
45969;DHT22;31676;40.444;-3.668;2022-11-20T08:57:30;23.60;74.60
45969;DHT22;31676;40.444;-3.668;2022-11-20T08:59:56;23.60;74.70
45969;DHT22;31676;40.444;-3.668;2022-11-20T09:02:22;23.60;74.60
45969;DHT22;31676;40.444;-3.668;2022-11-20T09:04:47;23.60;74.60
45969;DHT22;31676;40.444;-3.668;2022-11-20T09:07:13;23.60;74.60
45969;DHT22;31676;40.444;-3.668;2022-11-20T09:09:39;23.60;74.60
45969;DHT22;31676;40.444;-3.668;2022-11-20T09:12:04;23.60;74.60
45969;DHT22;31676;40.444;-3.668;2022-11-20T09:14:30;23.60;74.60
45969;DHT22;31676;40.444;-3.668;2022-11-20T09:16:56;23.60;74.60
45969;DHT22;31676;40.444;-3.668;2022-11-20T09:19:23;23.50;74.50
45969;DHT22;31676;40.444;-3.668;2022-11-20T09:21:48;23.60;74.60
45969;DHT22;31676;40.444;-3.668;2022-11-20T09:24:14;23.60;74.60
45969;DHT22;31676;40.444;-3.668;2022-11-20T09:26:40;23.50;74.60
45969;DHT22;31676;40.444;-3.668;2022-11-20T09:29:05;23.60;74.60
45969;DHT22;31676;40.444;-3.668;2022-11-20T09:31:31;23.50;74.50
45969;DHT22;31676;40.444;-3.668;2022-11-20T09:33:57;23.50;74.50
45969;DHT22;31676;40.444;-3.668;2022-11-20T09:36:22;23.50;74.50
45969;DHT22;31676;40.444;-3.668;2022-11-20T09:38:48;23.60;74.60
45969;DHT22;31676;40.444;-3.668;2022-11-20T09:41:19;23.50;74.60
45969;DHT22;31676;40.444;-3.668;2022-11-20T09:44:00;23.60;74.60
45969;DHT22;31676;40.444;-3.668;2022-11-20T09:51:57;23.60;74.60
45969;DHT22;31676;40.444;-3.668;2022-11-20T09:54:33;23.50;74.60
45969;DHT22;31676;40.444;-3.668;2022-11-20T09:57:11;23.50;74.60
45969;DHT22;31676;40.444;-3.668;2022-11-20T09:59:39;23.60;74.70
45969;DHT22;31676;40.444;-3.668;2022-11-20T10:04:59;23.50;74.60
45969;DHT22;31676;40.444;-3.668;2022-11-20T10:07:28;23.60;74.60
45969;DHT22;31676;40.444;-3.668;2022-11-20T10:09:55;23.50;74.60
45969;DHT22;31676;40.444;-3.668;2022-11-20T10:15:10;23.60;74.70
45969;DHT22;31676;40.444;-3.668;2022-11-20T10:17:55;23.50;74.60
45969;DHT22;31676;40.444;-3.668;2022-11-20T10:20:38;23.50;74.60
45969;DHT22;31676;40.444;-3.668;2022-11-20T10:23:29;23.50;74.60
45969;DHT22;31676;40.444;-3.668;2022-11-20T10:30:46;23.50;74.60
45969;DHT22;31676;40.444;-3.668;2022-11-20T10:33:17;23.50;74.60
45969;DHT22;31676;40.444;-3.668;2022-11-20T10:35:45;23.60;74.60
45969;DHT22;31676;40.444;-3.668;2022-11-20T10:38:16;23.50;74.60
45969;DHT22;31676;40.444;-3.668;2022-11-20T10:40:44;23.50;74.60
45969;DHT22;31676;40.444;-3.668;2022-11-20T10:43:28;23.50;74.60
45969;DHT22;31676;40.444;-3.668;2022-11-20T10:46:05;23.50;74.60
45969;DHT22;31676;40.444;-3.668;2022-11-20T10:48:32;23.50;74.60
45969;DHT22;31676;40.444;-3.668;2022-11-20T10:53:49;23.50;74.60
45969;DHT22;31676;40.444;-3.668;2022-11-20T10:56:22;23.50;74.60
45969;DHT22;31676;40.444;-3.668;2022-11-20T11:01:22;23.50;74.60
45969;DHT22;31676;40.444;-3.668;2022-11-20T11:03:49;23.50;74.60
45969;DHT22;31676;40.444;-3.668;2022-11-20T11:08:47;23.50;74.60
45969;DHT22;31676;40.444;-3.668;2022-11-20T11:13:45;23.50;74.60
45969;DHT22;31676;40.444;-3.668;2022-11-20T11:16:21;23.50;74.50
45969;DHT22;31676;40.444;-3.668;2022-11-20T11:18:48;23.60;74.60
45969;DHT22;31676;40.444;-3.668;2022-11-20T11:21:13;23.50;74.50
45969;DHT22;31676;40.444;-3.668;2022-11-20T11:23:46;23.50;74.60
45969;DHT22;31676;40.444;-3.668;2022-11-20T11:26:19;23.50;74.50
45969;DHT22;31676;40.444;-3.668;2022-11-20T11:28:58;23.50;74.60
45969;DHT22;31676;40.444;-3.668;2022-11-20T11:31:31;23.50;74.60
45969;DHT22;31676;40.444;-3.668;2022-11-20T11:36:38;23.50;74.60
45969;DHT22;31676;40.444;-3.668;2022-11-20T11:39:05;23.50;74.60
45969;DHT22;31676;40.444;-3.668;2022-11-20T11:41:32;23.50;74.60
45969;DHT22;31676;40.444;-3.668;2022-11-20T11:47:03;23.50;74.60
45969;DHT22;31676;40.444;-3.668;2022-11-20T11:49:31;23.50;74.60
45969;DHT22;31676;40.444;-3.668;2022-11-20T11:54:34;23.50;74.60
45969;DHT22;31676;40.444;-3.668;2022-11-20T11:57:01;23.50;74.60
45969;DHT22;31676;40.444;-3.668;2022-11-20T11:59:43;23.50;74.60
45969;DHT22;31676;40.444;-3.668;2022-11-20T12:02:22;23.50;74.60
45969;DHT22;31676;40.444;-3.668;2022-11-20T12:04:54;23.50;74.60
45969;DHT22;31676;40.444;-3.668;2022-11-20T12:12:48;23.50;74.50
45969;DHT22;31676;40.444;-3.668;2022-11-20T12:15:19;23.50;74.60
45969;DHT22;31676;40.444;-3.668;2022-11-20T12:17:46;23.60;74.60
45969;DHT22;31676;40.444;-3.668;2022-11-20T12:20:13;23.50;74.60
45969;DHT22;31676;40.444;-3.668;2022-11-20T12:25:29;23.50;74.60
45969;DHT22;31676;40.444;-3.668;2022-11-20T12:30:22;23.50;74.50
45969;DHT22;31676;40.444;-3.668;2022-11-20T12:40:28;23.50;74.50
45969;DHT22;31676;40.444;-3.668;2022-11-20T12:46:06;23.60;74.60
45969;DHT22;31676;40.444;-3.668;2022-11-20T12:58:47;23.50;74.50
45969;DHT22;31676;40.444;-3.668;2022-11-20T13:06:38;23.50;74.50
45969;DHT22;31676;40.444;-3.668;2022-11-20T13:09:08;23.50;74.50
45969;DHT22;31676;40.444;-3.668;2022-11-20T13:11:44;23.50;74.50
45969;DHT22;31676;40.444;-3.668;2022-11-20T13:14:24;23.60;74.60
45969;DHT22;31676;40.444;-3.668;2022-11-20T13:19:23;23.50;74.50
45969;DHT22;31676;40.444;-3.668;2022-11-20T13:21:49;23.60;74.50
45969;DHT22;31676;40.444;-3.668;2022-11-20T13:26:44;23.60;75.20
45969;DHT22;31676;40.444;-3.668;2022-11-20T13:29:11;23.60;74.50
45969;DHT22;31676;40.444;-3.668;2022-11-20T13:31:38;23.50;74.50
45969;DHT22;31676;40.444;-3.668;2022-11-20T13:34:09;23.60;74.50
45969;DHT22;31676;40.444;-3.668;2022-11-20T13:36:37;23.60;74.50
45969;DHT22;31676;40.444;-3.668;2022-11-20T13:39:23;23.60;74.60
45969;DHT22;31676;40.444;-3.668;2022-11-20T13:41:53;23.60;74.60
45969;DHT22;31676;40.444;-3.668;2022-11-20T13:44:24;23.60;74.50
45969;DHT22;31676;40.444;-3.668;2022-11-20T13:46:50;23.60;74.50
45969;DHT22;31676;40.444;-3.668;2022-11-20T13:51:49;23.60;74.50
45969;DHT22;31676;40.444;-3.668;2022-11-20T14:01:41;23.60;74.50
45969;DHT22;31676;40.444;-3.668;2022-11-20T14:04:11;23.60;74.50
45969;DHT22;31676;40.444;-3.668;2022-11-20T14:06:44;23.60;74.50
45969;DHT22;31676;40.444;-3.668;2022-11-20T14:09:11;23.60;74.50
45969;DHT22;31676;40.444;-3.668;2022-11-20T14:11:37;23.60;74.50
45969;DHT22;31676;40.444;-3.668;2022-11-20T14:16:36;23.60;74.50
45969;DHT22;31676;40.444;-3.668;2022-11-20T14:21:46;23.60;74.50
45969;DHT22;31676;40.444;-3.668;2022-11-20T14:24:12;23.60;74.50
45969;DHT22;31676;40.444;-3.668;2022-11-20T14:26:45;23.60;74.50
45969;DHT22;31676;40.444;-3.668;2022-11-20T14:29:14;23.60;74.50
45969;DHT22;31676;40.444;-3.668;2022-11-20T14:31:40;23.60;74.50
45969;DHT22;31676;40.444;-3.668;2022-11-20T14:34:26;23.60;74.50
45969;DHT22;31676;40.444;-3.668;2022-11-20T14:36:55;23.60;74.50
45969;DHT22;31676;40.444;-3.668;2022-11-20T14:39:21;23.60;74.50
45969;DHT22;31676;40.444;-3.668;2022-11-20T14:41:51;23.60;74.50
45969;DHT22;31676;40.444;-3.668;2022-11-20T14:44:17;23.60;74.50
45969;DHT22;31676;40.444;-3.668;2022-11-20T14:46:44;23.60;74.50
45969;DHT22;31676;40.444;-3.668;2022-11-20T14:49:10;23.60;74.50
45969;DHT22;31676;40.444;-3.668;2022-11-20T14:51:38;23.60;74.50
45969;DHT22;31676;40.444;-3.668;2022-11-20T14:56:35;23.60;74.50
45969;DHT22;31676;40.444;-3.668;2022-11-20T14:59:01;23.60;74.50
45969;DHT22;31676;40.444;-3.668;2022-11-20T15:01:28;23.60;74.50
45969;DHT22;31676;40.444;-3.668;2022-11-20T15:04:02;23.60;74.50
45969;DHT22;31676;40.444;-3.668;2022-11-20T15:06:30;23.60;74.50
45969;DHT22;31676;40.444;-3.668;2022-11-20T15:08:56;23.60;75.10
45969;DHT22;31676;40.444;-3.668;2022-11-20T15:11:32;23.60;74.50
45969;DHT22;31676;40.444;-3.668;2022-11-20T15:14:02;23.60;74.50
45969;DHT22;31676;40.444;-3.668;2022-11-20T15:16:28;23.60;74.50
45969;DHT22;31676;40.444;-3.668;2022-11-20T15:18:53;23.60;74.40
45969;DHT22;31676;40.444;-3.668;2022-11-20T15:21:19;23.60;74.50
45969;DHT22;31676;40.444;-3.668;2022-11-20T15:23:48;23.60;74.50
45969;DHT22;31676;40.444;-3.668;2022-11-20T15:26:14;23.60;74.50
45969;DHT22;31676;40.444;-3.668;2022-11-20T15:28:42;23.60;74.50
45969;DHT22;31676;40.444;-3.668;2022-11-20T15:31:15;23.60;74.50
45969;DHT22;31676;40.444;-3.668;2022-11-20T15:33:41;23.60;74.50
45969;DHT22;31676;40.444;-3.668;2022-11-20T15:36:08;23.60;74.50
45969;DHT22;31676;40.444;-3.668;2022-11-20T15:38:33;23.60;74.50
45969;DHT22;31676;40.444;-3.668;2022-11-20T15:40:59;23.60;74.40
45969;DHT22;31676;40.444;-3.668;2022-11-20T15:43:25;23.60;74.50
45969;DHT22;31676;40.444;-3.668;2022-11-20T15:45:51;23.60;74.40
45969;DHT22;31676;40.444;-3.668;2022-11-20T15:48:19;23.60;74.50
45969;DHT22;31676;40.444;-3.668;2022-11-20T15:53:14;23.60;74.50
45969;DHT22;31676;40.444;-3.668;2022-11-20T15:55:39;23.70;74.50
45969;DHT22;31676;40.444;-3.668;2022-11-20T15:58:05;23.60;74.40
45969;DHT22;31676;40.444;-3.668;2022-11-20T16:00:31;23.60;74.40
45969;DHT22;31676;40.444;-3.668;2022-11-20T16:02:56;23.60;74.50
45969;DHT22;31676;40.444;-3.668;2022-11-20T16:05:22;23.60;74.40
45969;DHT22;31676;40.444;-3.668;2022-11-20T16:07:51;23.60;74.40
45969;DHT22;31676;40.444;-3.668;2022-11-20T16:10:17;23.70;74.50
45969;DHT22;31676;40.444;-3.668;2022-11-20T16:12:42;23.60;74.40
45969;DHT22;31676;40.444;-3.668;2022-11-20T16:15:27;23.60;74.40
45969;DHT22;31676;40.444;-3.668;2022-11-20T16:18:12;23.60;74.50
45969;DHT22;31676;40.444;-3.668;2022-11-20T16:20:39;23.60;74.50
45969;DHT22;31676;40.444;-3.668;2022-11-20T16:23:05;23.60;74.50
45969;DHT22;31676;40.444;-3.668;2022-11-20T16:25:31;23.60;74.50
45969;DHT22;31676;40.444;-3.668;2022-11-20T16:27:57;23.70;74.50
45969;DHT22;31676;40.444;-3.668;2022-11-20T16:30:23;23.60;74.40
45969;DHT22;31676;40.444;-3.668;2022-11-20T16:32:48;23.60;74.40
45969;DHT22;31676;40.444;-3.668;2022-11-20T16:35:14;23.60;74.40
45969;DHT22;31676;40.444;-3.668;2022-11-20T16:37:40;23.70;74.50
45969;DHT22;31676;40.444;-3.668;2022-11-20T16:40:07;23.70;74.50
45969;DHT22;31676;40.444;-3.668;2022-11-20T16:42:33;23.70;74.50
45969;DHT22;31676;40.444;-3.668;2022-11-20T16:44:59;23.60;74.50
45969;DHT22;31676;40.444;-3.668;2022-11-20T16:47:25;23.70;74.50
45969;DHT22;31676;40.444;-3.668;2022-11-20T16:49:50;23.70;74.50
45969;DHT22;31676;40.444;-3.668;2022-11-20T16:52:16;23.70;74.50
45969;DHT22;31676;40.444;-3.668;2022-11-20T16:54:41;23.70;74.50
45969;DHT22;31676;40.444;-3.668;2022-11-20T16:57:07;23.70;74.50